createdAt,value
2022-10-08T00:03:46.797Z,3.97
2022-10-08T00:09:04.112Z,3.67
2022-10-08T00:14:07.864Z,4.10
2022-10-08T00:19:15.826Z,3.83
2022-10-08T00:24:19.901Z,3.90
2022-10-08T00:29:22.864Z,3.73
2022-10-08T00:34:24.643Z,3.37
2022-10-08T00:39:26.374Z,3.80
2022-10-08T00:44:55.445Z,4.03
2022-10-08T00:50:10.699Z,3.63
2022-10-08T00:55:17.032Z,4.30
2022-10-08T01:00:25.156Z,3.77
2022-10-08T01:05:55.101Z,3.87
2022-10-08T01:12:10.361Z,3.77
2022-10-08T01:17:33.855Z,4.30
2022-10-08T01:23:34.739Z,3.80
2022-10-08T01:29:12.875Z,3.93
2022-10-08T01:34:35.978Z,4.90
2022-10-08T01:39:40.885Z,3.67
2022-10-08T01:44:51.911Z,4.60
2022-10-08T01:50:19.394Z,3.70
2022-10-08T01:55:34.023Z,4.40
2022-10-08T02:00:40.801Z,4.00
2022-10-08T02:05:51.884Z,4.17
2022-10-08T02:10:53.556Z,4.20
2022-10-08T02:16:12.053Z,3.90
2022-10-08T02:21:28.323Z,3.73
2022-10-08T02:26:40.373Z,3.80
2022-10-08T02:32:03.533Z,4.07
2022-10-08T02:37:15.137Z,4.50
2022-10-08T02:42:24.414Z,6.10
2022-10-08T02:47:32.525Z,4.77
2022-10-08T02:52:40.729Z,5.00
2022-10-08T02:57:56.541Z,4.20
2022-10-08T03:03:16.377Z,3.97
2022-10-08T03:08:20.226Z,3.80
2022-10-08T03:13:24.218Z,3.77
2022-10-08T03:18:26.703Z,4.53
2022-10-08T03:23:28.450Z,4.30
2022-10-08T03:28:30.211Z,5.20
2022-10-08T03:33:33.506Z,4.97
2022-10-08T03:38:35.149Z,4.60
2022-10-08T03:43:37.204Z,4.43
2022-10-08T03:48:39.885Z,4.50
2022-10-08T03:53:43.955Z,4.40
2022-10-08T03:58:47.591Z,4.27
2022-10-08T04:03:49.409Z,4.40
2022-10-08T04:08:51.076Z,4.73
2022-10-08T04:13:52.725Z,4.80
2022-10-08T04:18:54.505Z,4.40
2022-10-08T04:23:56.173Z,4.60
2022-10-08T04:28:57.881Z,4.40
2022-10-08T04:33:59.609Z,4.60
2022-10-08T04:39:01.241Z,4.33
2022-10-08T04:44:02.879Z,4.90
2022-10-08T04:49:04.595Z,4.67
2022-10-08T04:54:06.415Z,4.67
2022-10-08T04:59:08.057Z,3.90
2022-10-08T05:04:09.715Z,3.17
2022-10-08T05:09:11.742Z,3.87
2022-10-08T05:14:13.680Z,3.30
2022-10-08T05:19:15.411Z,2.77
2022-10-08T05:24:17.129Z,3.00
2022-10-08T05:29:19.506Z,2.83
2022-10-08T05:34:21.375Z,3.20
2022-10-08T05:39:23.047Z,4.10
2022-10-08T05:44:24.712Z,4.67
2022-10-08T05:49:26.411Z,3.10
2022-10-08T05:54:28.039Z,3.63
2022-10-08T05:59:29.727Z,3.37
2022-10-08T06:04:31.445Z,2.60
2022-10-08T06:09:33.130Z,2.57
2022-10-08T06:14:34.763Z,2.50
2022-10-08T06:19:37.213Z,3.03
2022-10-08T06:24:38.879Z,3.80
2022-10-08T06:29:40.544Z,3.30
2022-10-08T06:34:42.189Z,2.90
2022-10-08T06:39:48.174Z,3.00
2022-10-08T06:44:50.141Z,3.27
2022-10-08T06:49:51.804Z,3.53
2022-10-08T06:54:53.834Z,3.60
2022-10-08T06:59:57.855Z,3.97
2022-10-08T07:04:59.569Z,3.60
2022-10-08T07:10:01.299Z,3.17
2022-10-08T07:15:03.006Z,3.37
2022-10-08T07:20:05.848Z,4.57
2022-10-08T07:25:07.837Z,3.63
2022-10-08T07:30:10.341Z,3.67
2022-10-08T07:35:12.006Z,3.27
2022-10-08T07:40:13.839Z,2.43
2022-10-08T07:45:15.625Z,2.60
2022-10-08T07:50:17.282Z,2.60
2022-10-08T07:55:18.966Z,2.80
2022-10-08T08:00:25.220Z,1.53
2022-10-08T08:05:27.769Z,1.80
2022-10-08T08:10:29.439Z,5.60
2022-10-08T08:15:31.069Z,1.60
2022-10-08T08:20:32.789Z,3.90
2022-10-08T08:25:34.463Z,2.90
2022-10-08T08:30:36.107Z,3.97
2022-10-08T08:35:37.753Z,2.00
2022-10-08T08:40:39.414Z,2.07
2022-10-08T08:45:47.668Z,2.87
2022-10-08T08:50:55.535Z,2.27
2022-10-08T08:56:03.044Z,2.80
2022-10-08T09:01:31.271Z,2.10
2022-10-08T09:06:37.196Z,2.53
2022-10-08T09:11:39.513Z,2.37
2022-10-08T09:16:41.370Z,2.27
2022-10-08T09:21:43.108Z,2.77
2022-10-08T09:26:44.810Z,2.40
2022-10-08T09:31:48.815Z,3.13
2022-10-08T09:37:05.166Z,3.23
2022-10-08T09:42:06.643Z,2.50
2022-10-08T09:47:14.509Z,3.23
2022-10-08T09:52:27.474Z,3.00
2022-10-08T09:57:33.002Z,2.53
2022-10-08T10:02:38.811Z,3.17
2022-10-08T10:07:45.770Z,3.70
2022-10-08T10:12:58.548Z,3.23
2022-10-08T10:18:12.032Z,2.03
2022-10-08T10:23:24.006Z,2.57
2022-10-08T10:28:53.204Z,1.90
2022-10-08T10:34:21.297Z,2.50
2022-10-08T10:40:15.796Z,2.57
2022-10-08T10:45:26.006Z,2.27
2022-10-08T10:51:09.016Z,3.70
2022-10-08T10:56:22.287Z,2.83
2022-10-08T11:02:14.847Z,3.20
2022-10-08T11:07:57.337Z,2.60
2022-10-08T11:13:50.176Z,3.40
2022-10-08T11:18:56.645Z,3.00
2022-10-08T11:24:25.711Z,3.23
2022-10-08T11:30:03.062Z,2.67
2022-10-08T11:35:16.674Z,3.07
2022-10-08T11:40:51.355Z,3.97
2022-10-08T11:46:30.790Z,3.53
2022-10-08T11:51:37.695Z,2.97
2022-10-08T11:57:55.517Z,3.00
2022-10-08T12:02:56.205Z,3.10
2022-10-08T12:08:02.828Z,4.03
2022-10-08T12:13:17.605Z,3.83
2022-10-08T12:18:26.337Z,3.83
2022-10-08T12:23:48.528Z,2.97
2022-10-08T12:28:50.817Z,4.40
2022-10-08T12:34:14.634Z,7.83
2022-10-08T12:39:48.019Z,3.03
2022-10-08T12:45:26.228Z,4.27
2022-10-08T12:51:40.446Z,3.60
2022-10-08T12:56:42.173Z,2.57
2022-10-08T13:01:46.638Z,3.93
2022-10-08T13:06:52.406Z,2.20
2022-10-08T13:12:03.927Z,2.97
2022-10-08T13:17:06.596Z,2.97
2022-10-08T13:22:26.220Z,1.83
2022-10-08T13:27:34.062Z,1.90
2022-10-08T13:32:38.213Z,2.03
2022-10-08T13:37:41.149Z,2.40
2022-10-08T13:42:50.500Z,1.43
2022-10-08T13:47:53.574Z,2.10
2022-10-08T13:53:00.490Z,1.80
2022-10-08T13:58:06.345Z,1.60
2022-10-08T14:03:09.665Z,2.20
2022-10-08T14:08:27.408Z,1.80
2022-10-08T14:13:29.778Z,2.00
2022-10-08T14:18:31.468Z,1.10
2022-10-08T14:23:33.237Z,1.23
2022-10-08T14:28:35.424Z,1.43
2022-10-08T14:33:37.166Z,1.47
2022-10-08T14:38:38.828Z,2.97
2022-10-08T14:43:40.966Z,1.50
2022-10-08T14:48:42.648Z,1.50
2022-10-08T14:53:44.368Z,1.30
2022-10-08T14:58:46.235Z,1.43
2022-10-08T15:03:47.975Z,0.93
2022-10-08T15:08:49.644Z,1.30
2022-10-08T15:13:54.092Z,1.37
2022-10-08T15:18:55.710Z,1.20
2022-10-08T15:23:57.425Z,0.77
2022-10-08T15:28:59.071Z,0.90
2022-10-08T15:34:01.661Z,1.10
2022-10-08T15:39:07.925Z,0.90
2022-10-08T15:44:15.930Z,0.90
2022-10-08T15:49:17.565Z,0.97
2022-10-08T15:54:19.240Z,1.20
2022-10-08T15:59:21.047Z,1.30
2022-10-08T16:04:22.739Z,1.10
2022-10-08T16:09:25.138Z,0.90
2022-10-08T16:14:27.498Z,0.90
2022-10-08T16:19:29.518Z,1.20
2022-10-08T16:24:34.961Z,1.73
2022-10-08T16:29:36.778Z,1.33
2022-10-08T16:34:45.055Z,1.30
2022-10-08T16:39:50.290Z,1.30
2022-10-08T16:44:52.079Z,1.10
2022-10-08T16:49:55.797Z,1.20
2022-10-08T16:54:57.542Z,1.17
2022-10-08T17:00:02.911Z,1.47
2022-10-08T17:05:05.585Z,1.27
2022-10-08T17:10:09.336Z,1.60
2022-10-08T17:15:11.717Z,1.80
2022-10-08T17:20:14.988Z,1.50
2022-10-08T17:25:17.027Z,1.43
2022-10-08T17:30:18.794Z,1.73
2022-10-08T17:35:22.881Z,1.10
2022-10-08T17:40:24.715Z,1.63
2022-10-08T17:45:37.090Z,1.00
2022-10-08T17:50:39.726Z,1.17
2022-10-08T17:55:41.642Z,1.00
2022-10-08T18:00:43.322Z,1.10
2022-10-08T18:05:57.626Z,1.60
2022-10-08T18:11:09.587Z,2.00
2022-10-08T18:16:17.464Z,1.57
2022-10-08T18:21:20.549Z,1.30
2022-10-08T18:26:25.873Z,2.03
2022-10-08T18:31:33.187Z,1.60
2022-10-08T18:36:37.890Z,1.30
2022-10-08T18:41:47.201Z,1.23
2022-10-08T18:46:49.834Z,1.77
2022-10-08T18:51:51.484Z,1.37
2022-10-08T18:56:53.273Z,2.10
2022-10-08T19:01:59.073Z,1.73
2022-10-08T19:07:01.363Z,1.57
2022-10-08T19:12:03.447Z,2.10
2022-10-08T19:17:05.196Z,1.43
2022-10-08T19:22:06.873Z,1.80
2022-10-08T19:27:08.581Z,1.80
2022-10-08T19:32:10.366Z,1.60
2022-10-08T19:37:12.144Z,1.37
2022-10-08T19:42:13.842Z,1.60
2022-10-08T19:47:15.522Z,1.60
2022-10-08T19:52:17.210Z,2.00
2022-10-08T19:57:18.922Z,2.13
2022-10-08T20:02:20.784Z,1.60
2022-10-08T20:07:22.488Z,1.97
2022-10-08T20:12:24.224Z,1.90
2022-10-08T20:17:25.924Z,1.60
2022-10-08T20:22:27.667Z,1.60
2022-10-08T20:27:29.347Z,1.60
2022-10-08T20:32:30.990Z,2.03
2022-10-08T20:37:33.007Z,2.50
2022-10-08T20:42:34.703Z,2.20
2022-10-08T20:47:36.333Z,2.30
2022-10-08T20:52:38.051Z,1.83
2022-10-08T20:57:39.712Z,1.83
2022-10-08T21:02:41.509Z,1.90
2022-10-08T21:07:43.135Z,1.87
2022-10-08T21:12:44.996Z,1.90
2022-10-08T21:17:46.812Z,1.20
2022-10-08T21:22:48.717Z,1.33
2022-10-08T21:27:50.602Z,1.30
2022-10-08T21:32:52.258Z,3.13
2022-10-08T21:37:53.937Z,1.70
2022-10-08T21:42:55.638Z,1.90
2022-10-08T21:47:57.282Z,2.00
2022-10-08T21:52:58.916Z,1.70
2022-10-08T21:58:00.582Z,1.83
2022-10-08T22:03:02.241Z,2.70
2022-10-08T22:08:03.937Z,1.67
2022-10-08T22:13:05.592Z,2.00
2022-10-08T22:18:07.237Z,1.90
2022-10-08T22:23:08.909Z,1.70
2022-10-08T22:28:10.765Z,1.43
2022-10-08T22:33:12.603Z,1.30
2022-10-08T22:38:14.402Z,1.57
2022-10-08T22:43:16.044Z,1.20
2022-10-08T22:48:19.578Z,1.33
2022-10-08T22:53:21.509Z,1.53
2022-10-08T22:58:23.348Z,1.27
2022-10-08T23:03:26.400Z,1.10
2022-10-08T23:08:28.382Z,1.40
2022-10-08T23:13:31.117Z,2.33
2022-10-08T23:18:38.579Z,1.40
2022-10-08T23:23:40.701Z,1.60
2022-10-08T23:28:43.525Z,2.10
2022-10-08T23:33:50.737Z,1.20
2022-10-08T23:38:53.455Z,1.60
2022-10-08T23:43:56.827Z,1.47
2022-10-08T23:48:59.711Z,1.90
2022-10-08T23:54:01.673Z,1.23
2022-10-08T23:59:03.414Z,2.40
